Time;durP1;ratioP1;P1;durP2;ratioP2;P2;SDS_P1;SDS_P2;PMS_P1;PMS_P2;Temp;Humidity;BMP_temperature;BMP_pressure;BME280_temperature;BME280_humidity;BME280_pressure;Samples;Min_cycle;Max_cycle;Signal;HPM_P1;HPM_P2
2021/05/31 00:01:36;;;;;;;18.27;16.67;;;;;;;;;;4973982;28;20483;-62
2021/05/31 00:04:03;;;;;;;17.97;16.17;;;;;;;;;;4973843;28;20507;-63
2021/05/31 00:06:29;;;;;;;17.47;15.77;;;;;;;;;;4971192;28;20482;-63
2021/05/31 00:08:56;;;;;;;19.50;17.60;;;;;;;;;;4973502;28;20470;-62
2021/05/31 00:11:23;;;;;;;18.90;16.97;;;;;;;;;;4973231;28;20554;-62
2021/05/31 00:13:50;;;;;;;18.77;17.07;;;;;;;;;;4981165;28;20455;-63
2021/05/31 00:16:17;;;;;;;17.43;15.83;;;;;;;;;;4992993;28;20474;-63
2021/05/31 00:18:43;;;;;;;19.67;17.77;;;;;;;;;;4975982;28;20451;-63
2021/05/31 00:21:10;;;;;;;18.47;16.47;;;;;;;;;;4972753;28;20455;-63
2021/05/31 00:23:37;;;;;;;20.50;18.60;;;;;;;;;;4973896;28;20452;-62
2021/05/31 00:26:03;;;;;;;20.37;18.37;;;;;;;;;;4972202;28;20533;-62
2021/05/31 00:28:31;;;;;;;20.90;18.73;;;;;;;;;;4973698;28;20501;-62
2021/05/31 00:30:58;;;;;;;20.00;18.10;;;;;;;;;;4973125;28;20487;-62
2021/05/31 00:33:24;;;;;;;21.57;18.23;;;;;;;;;;4976206;28;20459;-62
2021/05/31 00:35:51;;;;;;;20.60;18.07;;;;;;;;;;4972139;28;20458;-62
2021/05/31 00:38:17;;;;;;;21.50;19.50;;;;;;;;;;4973322;28;20451;-62
2021/05/31 00:40:44;;;;;;;20.73;18.70;;;;;;;;;;4973247;28;20443;-62
2021/05/31 00:43:11;;;;;;;18.77;16.83;;;;;;;;;;4972905;28;21022;-62
2021/05/31 00:45:38;;;;;;;22.50;19.73;;;;;;;;;;4971495;28;20988;-63
2021/05/31 00:48:05;;;;;;;20.90;18.70;;;;;;;;;;4973282;28;20458;-63
2021/05/31 00:50:32;;;;;;;20.20;18.13;;;;;;;;;;4973763;28;20487;-63
2021/05/31 00:52:58;;;;;;;21.23;18.30;;;;;;;;;;4973079;28;20458;-63
2021/05/31 00:55:25;;;;;;;19.33;17.63;;;;;;;;;;4967021;28;20463;-64
2021/05/31 00:57:51;;;;;;;20.03;18.07;;;;;;;;;;4972740;28;20479;-63
2021/05/31 01:00:19;;;;;;;20.00;18.10;;;;;;;;;;4973292;28;20459;-64
2021/05/31 01:02:46;;;;;;;20.50;18.50;;;;;;;;;;4973463;28;20455;-64
2021/05/31 01:05:13;;;;;;;19.63;17.67;;;;;;;;;;4972456;28;20474;-63
2021/05/31 01:07:41;;;;;;;20.67;18.67;;;;;;;;;;4972696;28;20499;-63
2021/05/31 01:10:14;;;;;;;21.33;19.03;;;;;;;;;;4972022;28;20460;-63
2021/05/31 01:12:42;;;;;;;19.33;17.43;;;;;;;;;;4973316;28;20450;-62
2021/05/31 01:15:12;;;;;;;19.17;17.27;;;;;;;;;;4982549;28;20446;-63
2021/05/31 01:17:42;;;;;;;22.40;17.83;;;;;;;;;;4983707;28;20471;-63
2021/05/31 01:20:22;;;;;;;19.20;17.40;;;;;;;;;;4972894;28;20459;-63
2021/05/31 01:22:49;;;;;;;19.87;17.83;;;;;;;;;;4972693;28;20479;-63
2021/05/31 01:25:18;;;;;;;21.93;17.27;;;;;;;;;;4972354;28;20466;-62
2021/05/31 01:27:55;;;;;;;19.40;17.40;;;;;;;;;;4972424;28;20505;-63
2021/05/31 01:30:23;;;;;;;18.03;16.33;;;;;;;;;;4973181;28;20431;-63
2021/05/31 01:32:52;;;;;;;20.20;18.30;;;;;;;;;;4972112;28;20451;-62
2021/05/31 01:35:21;;;;;;;21.33;18.70;;;;;;;;;;4972272;28;20454;-62
2021/05/31 01:37:49;;;;;;;19.40;17.50;;;;;;;;;;4971567;28;20475;-62
2021/05/31 01:40:16;;;;;;;20.60;18.70;;;;;;;;;;4976749;28;20534;-62
2021/05/31 01:42:43;;;;;;;19.40;17.50;;;;;;;;;;4972219;28;20460;-62
2021/05/31 01:45:11;;;;;;;19.20;17.40;;;;;;;;;;4972222;28;20455;-62
2021/05/31 01:47:39;;;;;;;20.17;18.17;;;;;;;;;;4971541;28;20482;-62
2021/05/31 01:50:07;;;;;;;18.97;17.23;;;;;;;;;;4972653;28;20458;-62
2021/05/31 01:52:34;;;;;;;19.70;17.60;;;;;;;;;;4972028;28;20827;-62
2021/05/31 01:55:01;;;;;;;19.50;17.73;;;;;;;;;;4973284;28;20459;-62
2021/05/31 01:57:28;;;;;;;18.20;16.40;;;;;;;;;;4970838;28;20819;-63
2021/05/31 01:59:54;;;;;;;20.60;17.70;;;;;;;;;;4972500;28;20479;-61
2021/05/31 02:02:21;;;;;;;20.93;18.60;;;;;;;;;;4972321;28;20447;-63
2021/05/31 02:04:49;;;;;;;18.40;16.67;;;;;;;;;;4971981;28;20456;-62
2021/05/31 02:07:16;;;;;;;19.77;17.97;;;;;;;;;;4971427;28;20475;-63
2021/05/31 02:09:44;;;;;;;19.80;17.97;;;;;;;;;;4972012;28;20514;-62
2021/05/31 02:12:12;;;;;;;18.83;17.10;;;;;;;;;;4973552;28;21006;-62
2021/05/31 02:14:42;;;;;;;19.33;17.43;;;;;;;;;;4976045;28;20451;-63
2021/05/31 02:17:14;;;;;;;20.53;18.67;;;;;;;;;;4970179;28;20471;-62
2021/05/31 02:19:41;;;;;;;19.53;17.40;;;;;;;;;;4975706;28;20451;-62
2021/05/31 02:22:11;;;;;;;21.27;19.37;;;;;;;;;;4975198;28;20447;-62
2021/05/31 02:24:38;;;;;;;19.30;17.60;;;;;;;;;;4988435;28;20458;-62
2021/05/31 02:27:05;;;;;;;19.23;16.57;;;;;;;;;;4983061;28;20494;-62
2021/05/31 02:29:32;;;;;;;19.30;17.40;;;;;;;;;;4975561;28;20459;-62
2021/05/31 02:31:58;;;;;;;20.00;18.00;;;;;;;;;;4974683;28;20483;-62
2021/05/31 02:34:28;;;;;;;20.60;18.40;;;;;;;;;;4956413;28;20444;-63
2021/05/31 02:36:55;;;;;;;20.07;17.83;;;;;;;;;;4971197;28;21017;-61
2021/05/31 02:39:23;;;;;;;21.13;18.67;;;;;;;;;;4975212;28;20824;-62
2021/05/31 02:41:50;;;;;;;20.60;18.57;;;;;;;;;;4975503;28;20455;-62
2021/05/31 02:44:17;;;;;;;21.70;18.37;;;;;;;;;;4975380;28;20451;-63
2021/05/31 02:46:44;;;;;;;19.03;17.23;;;;;;;;;;4974461;28;20534;-62
2021/05/31 02:49:11;;;;;;;19.50;17.50;;;;;;;;;;4975692;28;20526;-62
2021/05/31 02:51:38;;;;;;;21.80;19.70;;;;;;;;;;4975108;28;20486;-62
2021/05/31 02:54:06;;;;;;;21.40;19.20;;;;;;;;;;4974488;28;20455;-62
2021/05/31 02:56:34;;;;;;;19.97;18.07;;;;;;;;;;4974251;28;20538;-63
2021/05/31 02:59:00;;;;;;;20.73;18.50;;;;;;;;;;4974825;28;20514;-63
2021/05/31 03:01:27;;;;;;;19.33;17.53;;;;;;;;;;4975076;28;20473;-63
2021/05/31 03:03:54;;;;;;;21.07;18.87;;;;;;;;;;4975058;28;20455;-63
2021/05/31 03:06:20;;;;;;;21.57;19.27;;;;;;;;;;4985341;28;20479;-63
2021/05/31 03:08:47;;;;;;;20.30;18.40;;;;;;;;;;4974458;28;20459;-63
2021/05/31 03:11:14;;;;;;;21.53;19.33;;;;;;;;;;4974614;28;20852;-63
2021/05/31 03:13:42;;;;;;;22.73;19.83;;;;;;;;;;4974256;28;20947;-62
2021/05/31 03:16:09;;;;;;;21.47;19.40;;;;;;;;;;4973503;28;20476;-63
2021/05/31 03:18:35;;;;;;;21.33;19.20;;;;;;;;;;4976056;28;20498;-62
2021/05/31 03:21:02;;;;;;;20.47;18.53;;;;;;;;;;4973605;28;20452;-63
2021/05/31 03:23:29;;;;;;;22.00;19.57;;;;;;;;;;4973822;28;20455;-62
2021/05/31 03:25:55;;;;;;;20.53;18.60;;;;;;;;;;4973768;28;20479;-63
2021/05/31 03:28:22;;;;;;;20.20;18.30;;;;;;;;;;4974195;28;20814;-63
2021/05/31 03:30:50;;;;;;;21.10;19.10;;;;;;;;;;4973491;28;20493;-62
2021/05/31 03:33:16;;;;;;;21.00;19.00;;;;;;;;;;4987767;28;20690;-62
2021/05/31 03:35:43;;;;;;;21.07;18.87;;;;;;;;;;4981583;28;20464;-63
2021/05/31 03:38:10;;;;;;;22.37;20.20;;;;;;;;;;4954913;28;20456;-62
2021/05/31 03:40:36;;;;;;;22.10;19.83;;;;;;;;;;4972831;28;20451;-62
2021/05/31 03:43:03;;;;;;;20.40;18.30;;;;;;;;;;4973935;28;20451;-61
2021/05/31 03:45:29;;;;;;;20.43;18.53;;;;;;;;;;4971500;28;20998;-62
2021/05/31 03:47:57;;;;;;;20.60;18.60;;;;;;;;;;4954457;28;20483;-62
2021/05/31 03:50:24;;;;;;;20.30;18.27;;;;;;;;;;4966839;28;20463;-62
2021/05/31 03:52:51;;;;;;;21.03;18.93;;;;;;;;;;4974125;28;20487;-62
2021/05/31 03:55:18;;;;;;;20.53;18.63;;;;;;;;;;4972844;28;20966;-62
2021/05/31 03:57:45;;;;;;;19.53;17.53;;;;;;;;;;4968609;28;20836;-63
2021/05/31 04:00:12;;;;;;;21.10;18.20;;;;;;;;;;4973972;28;20487;-62
2021/05/31 04:02:39;;;;;;;19.43;17.50;;;;;;;;;;4973395;28;20538;-63
2021/05/31 04:05:09;;;;;;;19.90;18.20;;;;;;;;;;4973873;28;20463;-63
2021/05/31 04:13:14;;;;;;;22.87;20.80;;;;;;;;;;4973468;28;20430;-62
2021/05/31 04:15:41;;;;;;;20.60;18.80;;;;;;;;;;4972540;28;20451;-62
2021/05/31 04:18:07;;;;;;;22.13;20.10;;;;;;;;;;4971592;28;20459;-62
2021/05/31 04:20:35;;;;;;;23.87;21.33;;;;;;;;;;4973447;28;20455;-62
2021/05/31 04:23:02;;;;;;;20.90;19.10;;;;;;;;;;4973177;28;21029;-62
2021/05/31 04:25:29;;;;;;;22.07;20.30;;;;;;;;;;4972534;28;20458;-62
2021/05/31 04:27:55;;;;;;;22.10;20.13;;;;;;;;;;4972748;28;20537;-62
2021/05/31 04:30:23;;;;;;;23.20;21.10;;;;;;;;;;4973380;28;20454;-62
2021/05/31 04:32:50;;;;;;;21.40;19.67;;;;;;;;;;4974157;28;20859;-61
2021/05/31 04:35:17;;;;;;;20.83;19.00;;;;;;;;;;4972321;28;20455;-62
2021/05/31 04:37:45;;;;;;;21.97;20.07;;;;;;;;;;4972961;28;20486;-62
2021/05/31 04:40:12;;;;;;;20.00;18.30;;;;;;;;;;4972544;28;20452;-62
2021/05/31 04:42:38;;;;;;;18.73;17.30;;;;;;;;;;4972630;28;20451;-62
2021/05/31 04:45:06;;;;;;;18.40;16.90;;;;;;;;;;4973066;28;20480;-63
2021/05/31 04:47:32;;;;;;;19.07;17.47;;;;;;;;;;4972598;28;20487;-62
2021/05/31 04:49:59;;;;;;;18.17;16.67;;;;;;;;;;4972580;28;20451;-62
2021/05/31 04:52:26;;;;;;;16.97;15.57;;;;;;;;;;4972675;28;20502;-62
2021/05/31 04:54:54;;;;;;;16.43;15.13;;;;;;;;;;4972291;28;20459;-62
2021/05/31 04:57:21;;;;;;;16.77;15.37;;;;;;;;;;4984135;28;20477;-61
2021/05/31 04:59:48;;;;;;;15.30;14.10;;;;;;;;;;4982931;28;20466;-63
2021/05/31 05:02:15;;;;;;;14.43;8.00;;;;;;;;;;4963361;28;20539;-63
2021/05/31 05:04:42;;;;;;;14.87;7.30;;;;;;;;;;4973947;28;20466;-63
2021/05/31 05:07:12;;;;;;;9.87;8.10;;;;;;;;;;4971845;28;20495;-63
2021/05/31 05:09:39;;;;;;;10.50;9.60;;;;;;;;;;4973441;28;20458;-64
2021/05/31 05:12:08;;;;;;;11.60;8.60;;;;;;;;;;4973137;28;20523;-63
2021/05/31 05:14:34;;;;;;;11.47;10.47;;;;;;;;;;4973170;28;20462;-66
2021/05/31 05:17:03;;;;;;;9.20;8.50;;;;;;;;;;4972058;28;20509;-65
2021/05/31 05:19:29;;;;;;;9.43;8.27;;;;;;;;;;4973359;28;20456;-67
2021/05/31 05:21:56;;;;;;;6.60;6.10;;;;;;;;;;4972833;28;20452;-67
2021/05/31 05:24:22;;;;;;;8.10;7.47;;;;;;;;;;4973241;28;20828;-66
2021/05/31 05:26:49;;;;;;;9.57;6.30;;;;;;;;;;4976984;28;20474;-66
2021/05/31 05:29:17;;;;;;;5.60;5.10;;;;;;;;;;4992298;28;20833;-67
2021/05/31 05:31:44;;;;;;;5.73;5.20;;;;;;;;;;4986152;28;20479;-66
2021/05/31 05:34:10;;;;;;;5.73;4.07;;;;;;;;;;4972828;28;21025;-67
2021/05/31 05:36:45;;;;;;;6.37;4.90;;;;;;;;;;4971996;28;20534;-67
2021/05/31 05:42:05;;;;;;;4.80;4.40;;;;;;;;;;4972863;28;20522;-67
2021/05/31 05:47:42;;;;;;;4.37;3.97;;;;;;;;;;4933238;28;21028;-68
2021/05/31 05:50:10;;;;;;;4.13;3.40;;;;;;;;;;4968940;28;20447;-67
2021/05/31 05:52:36;;;;;;;4.10;3.70;;;;;;;;;;4974986;28;20983;-68
2021/05/31 05:55:04;;;;;;;10.60;5.00;;;;;;;;;;4974974;28;20955;-67
2021/05/31 05:57:30;;;;;;;6.20;4.47;;;;;;;;;;4974614;28;20475;-68
2021/05/31 06:00:01;;;;;;;7.37;4.07;;;;;;;;;;4976031;28;20459;-69
2021/05/31 06:02:27;;;;;;;3.90;3.43;;;;;;;;;;4975875;28;20447;-69
2021/05/31 06:04:54;;;;;;;5.33;4.20;;;;;;;;;;4976543;28;20462;-69
2021/05/31 06:07:20;;;;;;;3.70;3.40;;;;;;;;;;4974886;28;20477;-68
2021/05/31 06:09:47;;;;;;;6.37;5.47;;;;;;;;;;4976338;28;20463;-66
2021/05/31 06:12:14;;;;;;;5.67;5.17;;;;;;;;;;4975775;28;21001;-66
2021/05/31 06:14:40;;;;;;;5.60;4.80;;;;;;;;;;4975687;28;20871;-66
2021/05/31 06:17:09;;;;;;;5.57;5.07;;;;;;;;;;4974788;28;20479;-66
2021/05/31 06:19:35;;;;;;;7.00;4.97;;;;;;;;;;4975864;28;20455;-66
2021/05/31 06:22:02;;;;;;;5.27;4.87;;;;;;;;;;4975676;28;20447;-66
2021/05/31 06:24:29;;;;;;;7.43;5.03;;;;;;;;;;4975473;28;20953;-66
2021/05/31 06:26:55;;;;;;;6.20;4.07;;;;;;;;;;4975373;28;20482;-66
2021/05/31 06:29:22;;;;;;;6.50;4.50;;;;;;;;;;4956452;28;20785;-66
2021/05/31 06:31:49;;;;;;;4.40;4.00;;;;;;;;;;4973884;28;20494;-66
2021/05/31 06:34:17;;;;;;;4.57;4.17;;;;;;;;;;4975813;28;20444;-66
2021/05/31 06:36:44;;;;;;;4.03;3.73;;;;;;;;;;4975732;28;20474;-66
2021/05/31 06:39:11;;;;;;;4.20;3.83;;;;;;;;;;4976076;28;20943;-66
2021/05/31 06:41:38;;;;;;;4.00;3.70;;;;;;;;;;4976147;28;20487;-66
2021/05/31 06:44:05;;;;;;;3.53;3.23;;;;;;;;;;4976617;28;20456;-66
2021/05/31 06:46:31;;;;;;;4.90;2.80;;;;;;;;;;4976422;28;21025;-67
2021/05/31 06:48:58;;;;;;;4.43;3.73;;;;;;;;;;4976079;28;20463;-67
2021/05/31 06:51:26;;;;;;;3.27;2.77;;;;;;;;;;4976097;28;20491;-66
2021/05/31 06:53:53;;;;;;;2.77;2.57;;;;;;;;;;4975999;28;20451;-66
2021/05/31 06:56:20;;;;;;;3.03;2.77;;;;;;;;;;4974531;28;20486;-66
2021/05/31 06:58:46;;;;;;;3.77;3.00;;;;;;;;;;4975350;28;20867;-66
2021/05/31 07:01:13;;;;;;;4.67;3.10;;;;;;;;;;4975168;28;20459;-66
2021/05/31 07:03:40;;;;;;;4.00;3.00;;;;;;;;;;4976014;28;20451;-67
2021/05/31 07:06:07;;;;;;;3.10;2.70;;;;;;;;;;4974381;28;20960;-66
2021/05/31 07:08:35;;;;;;;5.10;3.00;;;;;;;;;;4975792;28;20466;-67
2021/05/31 07:11:05;;;;;;;3.80;2.83;;;;;;;;;;4975403;28;20456;-66
2021/05/31 07:13:32;;;;;;;2.73;2.50;;;;;;;;;;4975003;28;20983;-66
2021/05/31 07:15:59;;;;;;;2.73;2.53;;;;;;;;;;4974553;28;20479;-67
2021/05/31 07:18:25;;;;;;;2.80;2.60;;;;;;;;;;4975489;28;20447;-66
2021/05/31 07:20:53;;;;;;;3.00;2.70;;;;;;;;;;4975068;28;21012;-66
2021/05/31 07:23:19;;;;;;;3.43;2.70;;;;;;;;;;4987139;28;20525;-66
2021/05/31 07:25:47;;;;;;;3.33;2.80;;;;;;;;;;4985557;28;20494;-66
2021/05/31 07:28:14;;;;;;;2.30;2.07;;;;;;;;;;4975058;28;20458;-67
2021/05/31 07:30:41;;;;;;;2.67;2.47;;;;;;;;;;4975019;28;20534;-66
2021/05/31 07:33:10;;;;;;;3.60;2.60;;;;;;;;;;4975526;28;20487;-66
2021/05/31 07:35:37;;;;;;;3.40;2.33;;;;;;;;;;4974397;28;20510;-67
2021/05/31 07:38:04;;;;;;;4.07;2.33;;;;;;;;;;4975298;28;20490;-67
2021/05/31 07:40:31;;;;;;;3.20;2.40;;;;;;;;;;4974886;28;20466;-67
2021/05/31 07:42:59;;;;;;;4.87;2.60;;;;;;;;;;4980547;28;20443;-67
2021/05/31 07:45:26;;;;;;;2.20;2.00;;;;;;;;;;4986773;28;20514;-67
2021/05/31 07:47:52;;;;;;;3.20;2.13;;;;;;;;;;4974659;28;20494;-67
2021/05/31 07:50:19;;;;;;;2.53;2.13;;;;;;;;;;4976872;28;20463;-66
2021/05/31 07:52:46;;;;;;;3.27;2.30;;;;;;;;;;4975507;28;20487;-67
2021/05/31 07:55:14;;;;;;;3.83;2.30;;;;;;;;;;4974278;28;20447;-67
2021/05/31 07:57:42;;;;;;;6.80;2.20;;;;;;;;;;4974723;28;20989;-67
2021/05/31 08:00:11;;;;;;;2.90;2.27;;;;;;;;;;4974904;28;20454;-67
2021/05/31 08:02:41;;;;;;;2.60;2.20;;;;;;;;;;4975188;28;20538;-67
2021/05/31 08:05:08;;;;;;;2.17;1.83;;;;;;;;;;4974730;28;20959;-67
2021/05/31 08:07:35;;;;;;;2.00;1.80;;;;;;;;;;4974071;28;21017;-66
2021/05/31 08:10:02;;;;;;;3.37;2.10;;;;;;;;;;4974033;28;20938;-67
2021/05/31 08:12:28;;;;;;;3.33;1.97;;;;;;;;;;4974747;28;20475;-67
2021/05/31 08:14:55;;;;;;;3.40;2.23;;;;;;;;;;4975222;28;20506;-67
2021/05/31 08:17:23;;;;;;;3.50;1.97;;;;;;;;;;4974648;28;20856;-67
2021/05/31 08:19:50;;;;;;;2.17;1.97;;;;;;;;;;4974799;28;20451;-67
2021/05/31 08:22:16;;;;;;;3.63;1.90;;;;;;;;;;4974937;28;20443;-67
2021/05/31 08:24:43;;;;;;;2.20;2.00;;;;;;;;;;4974627;28;20801;-67
2021/05/31 08:27:10;;;;;;;2.40;2.00;;;;;;;;;;4974024;28;20472;-67
2021/05/31 08:29:36;;;;;;;2.70;1.80;;;;;;;;;;4975125;28;20443;-67
2021/05/31 08:32:03;;;;;;;3.20;1.97;;;;;;;;;;4973894;28;20483;-66
2021/05/31 08:34:31;;;;;;;2.50;1.77;;;;;;;;;;4974466;28;20457;-67
2021/05/31 08:36:58;;;;;;;2.37;2.00;;;;;;;;;;4973662;28;20489;-67
2021/05/31 08:39:24;;;;;;;1.90;1.60;;;;;;;;;;4974373;28;20824;-67
2021/05/31 08:41:51;;;;;;;2.90;2.00;;;;;;;;;;4974035;28;20458;-67
2021/05/31 08:44:18;;;;;;;6.00;2.00;;;;;;;;;;4974870;28;20455;-67
2021/05/31 08:46:45;;;;;;;2.50;1.70;;;;;;;;;;5003578;23;20497;-63
2021/05/31 08:49:12;;;;;;;2.10;1.83;;;;;;;;;;4996324;28;20472;-63
2021/05/31 08:51:40;;;;;;;1.57;1.47;;;;;;;;;;4981483;28;20483;-63
2021/05/31 08:54:07;;;;;;;2.77;2.20;;;;;;;;;;4973583;28;20455;-62
2021/05/31 08:56:34;;;;;;;2.60;1.63;;;;;;;;;;4973705;28;20484;-63
2021/05/31 08:59:00;;;;;;;3.87;2.63;;;;;;;;;;4974554;28;20466;-64
2021/05/31 09:01:27;;;;;;;1.97;1.70;;;;;;;;;;4986070;28;20477;-63
2021/05/31 09:03:55;;;;;;;2.43;2.07;;;;;;;;;;4983512;28;20451;-63
2021/05/31 09:06:22;;;;;;;2.67;2.03;;;;;;;;;;4974155;28;20456;-63
2021/05/31 09:08:53;;;;;;;2.63;1.80;;;;;;;;;;4984897;28;20476;-63
2021/05/31 09:11:21;;;;;;;2.70;2.50;;;;;;;;;;4995261;28;20455;-64
2021/05/31 09:13:48;;;;;;;2.77;1.93;;;;;;;;;;5007536;28;20457;-63
2021/05/31 09:16:15;;;;;;;6.60;2.50;;;;;;;;;;5009000;28;20458;-63
2021/05/31 09:18:45;;;;;;;2.03;1.83;;;;;;;;;;5008344;28;20455;-65
2021/05/31 09:21:16;;;;;;;2.80;2.40;;;;;;;;;;5006457;28;20449;-63
2021/05/31 09:23:43;;;;;;;3.57;2.40;;;;;;;;;;5011071;28;20450;-63
2021/05/31 09:26:11;;;;;;;2.43;2.17;;;;;;;;;;5007152;28;20951;-64
2021/05/31 09:28:38;;;;;;;4.40;2.50;;;;;;;;;;4997544;28;20473;-63
2021/05/31 09:31:14;;;;;;;9.73;2.47;;;;;;;;;;4998183;28;20455;-63
2021/05/31 09:33:42;;;;;;;6.80;2.47;;;;;;;;;;4997112;28;20445;-63
2021/05/31 09:36:09;;;;;;;3.10;2.53;;;;;;;;;;4996753;28;20461;-63
2021/05/31 09:38:46;;;;;;;3.70;2.50;;;;;;;;;;4997351;28;20470;-63
2021/05/31 09:41:21;;;;;;;3.77;2.60;;;;;;;;;;4998020;28;20985;-63
2021/05/31 09:43:51;;;;;;;3.93;2.67;;;;;;;;;;4997589;28;20449;-64
2021/05/31 09:46:18;;;;;;;2.90;2.50;;;;;;;;;;4995994;28;20500;-63
2021/05/31 09:48:45;;;;;;;2.50;2.30;;;;;;;;;;5004517;28;20450;-64
2021/05/31 09:51:14;;;;;;;3.70;2.40;;;;;;;;;;5010942;28;20743;-63
2021/05/31 09:53:40;;;;;;;3.10;2.70;;;;;;;;;;5009557;28;20510;-63
2021/05/31 09:56:15;;;;;;;2.47;2.23;;;;;;;;;;5010028;28;20450;-63
2021/05/31 09:58:50;;;;;;;2.50;2.30;;;;;;;;;;5007854;28;20820;-62
2021/05/31 10:01:17;;;;;;;2.43;2.20;;;;;;;;;;5007549;28;20438;-64
2021/05/31 10:03:55;;;;;;;2.73;2.53;;;;;;;;;;5010605;28;20465;-63
2021/05/31 10:06:41;;;;;;;3.57;2.73;;;;;;;;;;5002602;28;20449;-63
2021/05/31 10:09:08;;;;;;;2.77;2.50;;;;;;;;;;4995408;28;20448;-64
2021/05/31 10:11:37;;;;;;;3.33;2.60;;;;;;;;;;4995023;28;20868;-64
2021/05/31 10:14:03;;;;;;;3.60;2.57;;;;;;;;;;4982266;28;21054;-63
2021/05/31 10:16:31;;;;;;;2.73;2.50;;;;;;;;;;4985945;28;20490;-64
2021/05/31 10:18:58;;;;;;;3.87;2.27;;;;;;;;;;4992105;28;20450;-64
2021/05/31 10:21:25;;;;;;;3.50;2.10;;;;;;;;;;4990123;28;20453;-63
2021/05/31 10:23:53;;;;;;;3.07;2.20;;;;;;;;;;4993995;28;21712;-62
2021/05/31 10:26:21;;;;;;;3.03;2.37;;;;;;;;;;4993380;28;20537;-63
2021/05/31 10:28:50;;;;;;;6.70;2.23;;;;;;;;;;4994865;28;20512;-62
2021/05/31 10:31:16;;;;;;;3.10;1.70;;;;;;;;;;4994317;28;20889;-65
2021/05/31 10:33:43;;;;;;;2.70;1.70;;;;;;;;;;4993514;28;20481;-63
2021/05/31 10:36:11;;;;;;;2.60;2.13;;;;;;;;;;4985568;28;20458;-63
2021/05/31 10:38:38;;;;;;;3.00;2.23;;;;;;;;;;4981419;28;20490;-62
2021/05/31 10:41:11;;;;;;;3.60;2.20;;;;;;;;;;4994180;28;20945;-65
2021/05/31 10:43:43;;;;;;;3.27;1.83;;;;;;;;;;4994076;28;20465;-63
2021/05/31 10:46:14;;;;;;;2.10;1.83;;;;;;;;;;4992778;28;20443;-63
2021/05/31 10:48:44;;;;;;;3.70;2.40;;;;;;;;;;4994537;28;21098;-62
2021/05/31 10:51:18;;;;;;;2.80;2.50;;;;;;;;;;4977131;28;20447;-63
2021/05/31 10:53:44;;;;;;;5.20;1.93;;;;;;;;;;4993902;28;20486;-62
2021/05/31 10:56:12;;;;;;;4.87;2.10;;;;;;;;;;4993062;28;20458;-63
2021/05/31 10:58:40;;;;;;;2.43;2.10;;;;;;;;;;4993729;28;20454;-62
2021/05/31 11:01:08;;;;;;;3.03;2.00;;;;;;;;;;4993460;28;20459;-62
2021/05/31 11:03:46;;;;;;;2.57;2.00;;;;;;;;;;4993607;28;20490;-62
2021/05/31 11:06:13;;;;;;;2.33;2.13;;;;;;;;;;4992860;28;20455;-62
2021/05/31 11:08:47;;;;;;;3.60;2.07;;;;;;;;;;4993974;28;21023;-63
2021/05/31 11:11:23;;;;;;;2.10;1.90;;;;;;;;;;4993534;28;20500;-62
2021/05/31 11:13:50;;;;;;;3.57;2.20;;;;;;;;;;4993119;28;20827;-63
2021/05/31 11:16:17;;;;;;;4.57;2.07;;;;;;;;;;4978679;28;20814;-64
2021/05/31 11:18:44;;;;;;;2.40;1.80;;;;;;;;;;4993911;28;20454;-62
2021/05/31 11:21:25;;;;;;;2.47;2.00;;;;;;;;;;4993925;28;20518;-62
2021/05/31 11:23:56;;;;;;;4.47;2.67;;;;;;;;;;4991973;28;20513;-62
2021/05/31 11:26:22;;;;;;;2.40;1.57;;;;;;;;;;4991926;28;20446;-62
2021/05/31 11:28:49;;;;;;;2.73;2.33;;;;;;;;;;4991707;28;20517;-62
2021/05/31 11:31:16;;;;;;;2.17;1.70;;;;;;;;;;4993395;28;20508;-62
2021/05/31 11:33:43;;;;;;;1.60;1.40;;;;;;;;;;4993712;28;20552;-63
2021/05/31 11:36:10;;;;;;;2.80;2.53;;;;;;;;;;4993242;28;20453;-62
2021/05/31 11:38:41;;;;;;;2.57;2.37;;;;;;;;;;4993133;28;20470;-63
2021/05/31 11:41:09;;;;;;;3.43;2.40;;;;;;;;;;4993637;28;20465;-62
2021/05/31 11:43:35;;;;;;;3.83;2.50;;;;;;;;;;4993517;28;20538;-63
2021/05/31 11:46:02;;;;;;;4.73;2.30;;;;;;;;;;4991827;28;20482;-63
2021/05/31 11:48:29;;;;;;;2.10;1.90;;;;;;;;;;4990717;28;20493;-63
2021/05/31 11:50:55;;;;;;;3.23;2.30;;;;;;;;;;4991058;28;20549;-62
2021/05/31 11:53:22;;;;;;;3.40;2.43;;;;;;;;;;4993054;28;20482;-62
2021/05/31 11:55:50;;;;;;;3.70;2.20;;;;;;;;;;4992176;28;20458;-64
2021/05/31 11:58:17;;;;;;;5.43;2.40;;;;;;;;;;4992418;28;20903;-64
2021/05/31 12:00:44;;;;;;;3.33;2.40;;;;;;;;;;4993233;28;20456;-62
2021/05/31 12:03:17;;;;;;;5.10;2.30;;;;;;;;;;4991415;28;21306;-63
2021/05/31 12:05:44;;;;;;;2.60;2.30;;;;;;;;;;4991113;28;20450;-63
2021/05/31 12:08:11;;;;;;;3.00;1.70;;;;;;;;;;4991370;28;20479;-63
2021/05/31 12:10:38;;;;;;;3.10;2.50;;;;;;;;;;4992536;28;20892;-65
2021/05/31 12:13:06;;;;;;;2.37;2.10;;;;;;;;;;4993115;28;20482;-66
2021/05/31 12:15:33;;;;;;;3.50;2.10;;;;;;;;;;4993058;28;20454;-65
2021/05/31 12:18:08;;;;;;;3.20;2.27;;;;;;;;;;4991749;28;20478;-63
2021/05/31 12:20:34;;;;;;;3.50;2.33;;;;;;;;;;4992836;28;20462;-63
2021/05/31 12:23:01;;;;;;;3.10;2.50;;;;;;;;;;4991685;28;20457;-66
2021/05/31 12:25:32;;;;;;;5.03;2.17;;;;;;;;;;4991389;28;20446;-64
2021/05/31 12:28:04;;;;;;;3.90;1.70;;;;;;;;;;4973028;28;20852;-62
2021/05/31 12:30:32;;;;;;;3.50;2.40;;;;;;;;;;4973296;28;20462;-64
2021/05/31 12:32:58;;;;;;;5.57;2.80;;;;;;;;;;4992127;28;20489;-63
2021/05/31 12:35:25;;;;;;;2.93;2.10;;;;;;;;;;4991988;28;20458;-62
2021/05/31 12:37:53;;;;;;;3.40;2.37;;;;;;;;;;4974323;28;20472;-65
2021/05/31 12:40:20;;;;;;;4.10;2.30;;;;;;;;;;4973029;28;20459;-64
2021/05/31 12:42:48;;;;;;;2.57;2.20;;;;;;;;;;4992356;28;20456;-63
2021/05/31 12:45:17;;;;;;;4.50;2.50;;;;;;;;;;4992055;28;20965;-63
2021/05/31 12:47:46;;;;;;;3.57;2.53;;;;;;;;;;4989994;28;21020;-63
2021/05/31 12:50:13;;;;;;;3.90;2.37;;;;;;;;;;4972923;28;20451;-63
2021/05/31 12:52:42;;;;;;;3.23;2.60;;;;;;;;;;4990582;28;20493;-64
2021/05/31 12:55:11;;;;;;;4.03;2.23;;;;;;;;;;4991491;28;20454;-63
2021/05/31 12:57:38;;;;;;;4.43;2.40;;;;;;;;;;4991486;28;20497;-64
2021/05/31 13:00:09;;;;;;;2.50;2.30;;;;;;;;;;4992217;28;20489;-65
2021/05/31 13:02:39;;;;;;;2.47;2.10;;;;;;;;;;4992003;28;20458;-65
2021/05/31 13:05:09;;;;;;;2.43;2.10;;;;;;;;;;4990170;28;20961;-66
2021/05/31 13:07:36;;;;;;;2.90;2.60;;;;;;;;;;4990002;28;20482;-65
2021/05/31 13:10:10;;;;;;;3.10;2.33;;;;;;;;;;4991747;28;20474;-65
2021/05/31 13:12:37;;;;;;;2.80;2.17;;;;;;;;;;4984543;28;21009;-64
2021/05/31 13:15:05;;;;;;;2.47;2.17;;;;;;;;;;4973000;28;20462;-64
2021/05/31 13:17:32;;;;;;;6.20;3.10;;;;;;;;;;4982288;28;20478;-66
2021/05/31 13:20:10;;;;;;;3.83;2.57;;;;;;;;;;4992018;28;20459;-64
2021/05/31 13:22:37;;;;;;;3.67;2.47;;;;;;;;;;4991584;28;20450;-65
2021/05/31 13:25:05;;;;;;;2.50;2.30;;;;;;;;;;4989265;28;20497;-65
2021/05/31 13:27:33;;;;;;;4.77;2.83;;;;;;;;;;4991115;28;20466;-64
2021/05/31 13:30:01;;;;;;;2.80;2.20;;;;;;;;;;4992274;28;20512;-65
2021/05/31 13:32:29;;;;;;;3.87;2.63;;;;;;;;;;4991820;28;20859;-65
2021/05/31 13:35:00;;;;;;;3.03;2.70;;;;;;;;;;4991815;28;20474;-65
2021/05/31 13:37:28;;;;;;;3.00;2.70;;;;;;;;;;4991083;28;20470;-64
2021/05/31 13:39:56;;;;;;;2.40;2.20;;;;;;;;;;4989604;28;20455;-64
2021/05/31 13:42:23;;;;;;;3.33;2.47;;;;;;;;;;4992034;28;20442;-64
2021/05/31 13:44:50;;;;;;;3.30;2.87;;;;;;;;;;4991193;28;20459;-65
2021/05/31 13:47:16;;;;;;;3.97;2.90;;;;;;;;;;4991043;28;20478;-64
2021/05/31 13:49:43;;;;;;;3.37;2.43;;;;;;;;;;4975923;28;20466;-64
2021/05/31 13:52:11;;;;;;;3.47;2.63;;;;;;;;;;4972540;28;21006;-65
2021/05/31 13:54:39;;;;;;;3.30;3.00;;;;;;;;;;4972541;28;20455;-65
2021/05/31 13:57:07;;;;;;;3.67;3.03;;;;;;;;;;4971611;28;20917;-64
2021/05/31 13:59:33;;;;;;;3.77;2.90;;;;;;;;;;4979501;28;20458;-64
2021/05/31 14:02:00;;;;;;;2.70;2.50;;;;;;;;;;4991637;28;20454;-64
2021/05/31 14:04:26;;;;;;;3.47;3.10;;;;;;;;;;4991280;28;20511;-62
2021/05/31 14:06:53;;;;;;;2.80;2.60;;;;;;;;;;4990525;28;20994;-63
2021/05/31 14:09:20;;;;;;;3.47;2.83;;;;;;;;;;4994789;28;20458;-64
2021/05/31 14:11:47;;;;;;;4.60;3.50;;;;;;;;;;4995208;28;20452;-63
2021/05/31 14:14:14;;;;;;;3.83;3.00;;;;;;;;;;4988336;28;20811;-62
2021/05/31 14:16:43;;;;;;;5.30;3.33;;;;;;;;;;4994532;28;20470;-63
2021/05/31 14:19:09;;;;;;;4.33;3.70;;;;;;;;;;4994933;28;20450;-63
2021/05/31 14:21:36;;;;;;;3.40;3.10;;;;;;;;;;4995164;28;20934;-64
2021/05/31 14:24:03;;;;;;;4.43;3.40;;;;;;;;;;4994858;28;20450;-63
2021/05/31 14:26:29;;;;;;;3.53;3.23;;;;;;;;;;4994564;28;20466;-62
2021/05/31 14:28:57;;;;;;;3.20;2.93;;;;;;;;;;4994532;28;20650;-62
2021/05/31 14:31:24;;;;;;;4.17;3.03;;;;;;;;;;4995067;28;20457;-63
2021/05/31 14:33:50;;;;;;;4.50;3.20;;;;;;;;;;4994481;28;20482;-62
2021/05/31 14:36:17;;;;;;;3.60;3.10;;;;;;;;;;4994186;28;20462;-63
2021/05/31 14:38:45;;;;;;;3.80;3.23;;;;;;;;;;4994208;28;20454;-62
2021/05/31 14:41:13;;;;;;;3.10;2.80;;;;;;;;;;4994835;28;20984;-63
2021/05/31 14:43:40;;;;;;;4.20;3.60;;;;;;;;;;4983852;28;20463;-62
2021/05/31 14:46:09;;;;;;;3.40;3.10;;;;;;;;;;4974082;28;20482;-64
2021/05/31 14:48:36;;;;;;;3.93;3.10;;;;;;;;;;5008566;23;20556;-68